sensor_id;sensor_type;location;lat;lon;timestamp;P1;durP1;ratioP1;P2;durP2;ratioP2
57824;SDS011;43912;44.188;21.094;2023-02-21T00:00:30;44.75;;;30.15;;
57824;SDS011;43912;44.188;21.094;2023-02-21T00:03:15;40.05;;;26.40;;
57824;SDS011;43912;44.188;21.094;2023-02-21T00:05:59;91.72;;;56.75;;
57824;SDS011;43912;44.188;21.094;2023-02-21T00:08:44;37.10;;;25.02;;
57824;SDS011;43912;44.188;21.094;2023-02-21T00:11:29;33.28;;;23.83;;
57824;SDS011;43912;44.188;21.094;2023-02-21T00:14:14;33.67;;;23.58;;
57824;SDS011;43912;44.188;21.094;2023-02-21T00:16:58;34.30;;;26.52;;
57824;SDS011;43912;44.188;21.094;2023-02-21T00:19:43;36.13;;;26.48;;
57824;SDS011;43912;44.188;21.094;2023-02-21T00:22:27;40.08;;;29.58;;
57824;SDS011;43912;44.188;21.094;2023-02-21T00:25:12;43.92;;;31.67;;
57824;SDS011;43912;44.188;21.094;2023-02-21T00:27:59;45.28;;;31.13;;
57824;SDS011;43912;44.188;21.094;2023-02-21T00:30:43;51.42;;;34.85;;
57824;SDS011;43912;44.188;21.094;2023-02-21T00:33:28;43.25;;;29.15;;
57824;SDS011;43912;44.188;21.094;2023-02-21T00:36:15;40.08;;;27.50;;
57824;SDS011;43912;44.188;21.094;2023-02-21T00:38:59;40.53;;;27.40;;
57824;SDS011;43912;44.188;21.094;2023-02-21T00:41:44;36.05;;;26.30;;
57824;SDS011;43912;44.188;21.094;2023-02-21T00:44:28;43.03;;;27.23;;
57824;SDS011;43912;44.188;21.094;2023-02-21T00:47:13;37.65;;;26.40;;
57824;SDS011;43912;44.188;21.094;2023-02-21T00:49:57;34.35;;;23.83;;
57824;SDS011;43912;44.188;21.094;2023-02-21T00:52:42;31.70;;;21.92;;
57824;SDS011;43912;44.188;21.094;2023-02-21T00:55:26;37.28;;;24.02;;
57824;SDS011;43912;44.188;21.094;2023-02-21T00:58:11;37.03;;;24.65;;
57824;SDS011;43912;44.188;21.094;2023-02-21T01:00:56;39.20;;;24.38;;
57824;SDS011;43912;44.188;21.094;2023-02-21T01:03:41;37.95;;;25.58;;
57824;SDS011;43912;44.188;21.094;2023-02-21T01:06:25;34.33;;;23.63;;
57824;SDS011;43912;44.188;21.094;2023-02-21T01:09:10;38.60;;;25.67;;
57824;SDS011;43912;44.188;21.094;2023-02-21T01:11:54;42.10;;;27.63;;
57824;SDS011;43912;44.188;21.094;2023-02-21T01:14:39;38.10;;;26.67;;
57824;SDS011;43912;44.188;21.094;2023-02-21T01:17:24;34.47;;;23.92;;
57824;SDS011;43912;44.188;21.094;2023-02-21T01:20:09;35.83;;;23.92;;
57824;SDS011;43912;44.188;21.094;2023-02-21T01:22:54;35.72;;;25.27;;
57824;SDS011;43912;44.188;21.094;2023-02-21T01:25:38;36.53;;;24.55;;
57824;SDS011;43912;44.188;21.094;2023-02-21T01:28:23;33.47;;;24.13;;
57824;SDS011;43912;44.188;21.094;2023-02-21T01:31:08;35.20;;;24.60;;
57824;SDS011;43912;44.188;21.094;2023-02-21T01:33:52;33.80;;;23.75;;
57824;SDS011;43912;44.188;21.094;2023-02-21T01:36:39;35.55;;;23.85;;
57824;SDS011;43912;44.188;21.094;2023-02-21T01:39:24;34.55;;;22.33;;
57824;SDS011;43912;44.188;21.094;2023-02-21T01:42:09;33.40;;;22.25;;
57824;SDS011;43912;44.188;21.094;2023-02-21T01:47:57;27.25;;;19.95;;
57824;SDS011;43912;44.188;21.094;2023-02-21T01:50:48;28.02;;;20.13;;
57824;SDS011;43912;44.188;21.094;2023-02-21T01:53:32;32.65;;;21.40;;
57824;SDS011;43912;44.188;21.094;2023-02-21T01:56:17;29.70;;;20.67;;
57824;SDS011;43912;44.188;21.094;2023-02-21T01:59:02;30.00;;;20.98;;
57824;SDS011;43912;44.188;21.094;2023-02-21T02:01:52;27.67;;;20.77;;
57824;SDS011;43912;44.188;21.094;2023-02-21T02:04:37;28.15;;;18.58;;
57824;SDS011;43912;44.188;21.094;2023-02-21T02:07:22;29.40;;;19.98;;
57824;SDS011;43912;44.188;21.094;2023-02-21T02:10:07;27.45;;;19.60;;
57824;SDS011;43912;44.188;21.094;2023-02-21T02:13:15;34.40;;;22.38;;
57824;SDS011;43912;44.188;21.094;2023-02-21T02:16:02;35.22;;;23.50;;
57824;SDS011;43912;44.188;21.094;2023-02-21T02:33:45;38.03;;;24.52;;
57824;SDS011;43912;44.188;21.094;2023-02-21T02:36:23;31.33;;;24.15;;
57824;SDS011;43912;44.188;21.094;2023-02-21T02:44:29;29.15;;;21.95;;
57824;SDS011;43912;44.188;21.094;2023-02-21T02:46:56;32.13;;;23.67;;
57824;SDS011;43912;44.188;21.094;2023-02-21T02:49:24;35.53;;;25.42;;
57824;SDS011;43912;44.188;21.094;2023-02-21T02:51:52;38.15;;;27.00;;
57824;SDS011;43912;44.188;21.094;2023-02-21T02:54:19;36.85;;;25.55;;
57824;SDS011;43912;44.188;21.094;2023-02-21T02:56:45;41.65;;;28.83;;
57824;SDS011;43912;44.188;21.094;2023-02-21T02:59:21;37.58;;;27.90;;
57824;SDS011;43912;44.188;21.094;2023-02-21T03:04:43;31.08;;;22.65;;
57824;SDS011;43912;44.188;21.094;2023-02-21T03:14:59;39.03;;;29.85;;
57824;SDS011;43912;44.188;21.094;2023-02-21T03:17:27;38.92;;;28.95;;
57824;SDS011;43912;44.188;21.094;2023-02-21T03:19:55;40.42;;;29.38;;
57824;SDS011;43912;44.188;21.094;2023-02-21T03:22:23;41.17;;;28.05;;
57824;SDS011;43912;44.188;21.094;2023-02-21T03:24:50;33.85;;;22.98;;
57824;SDS011;43912;44.188;21.094;2023-02-21T03:27:17;29.63;;;22.10;;
57824;SDS011;43912;44.188;21.094;2023-02-21T03:29:44;30.33;;;22.23;;
57824;SDS011;43912;44.188;21.094;2023-02-21T03:32:16;28.42;;;19.67;;
57824;SDS011;43912;44.188;21.094;2023-02-21T03:34:43;29.38;;;21.52;;
57824;SDS011;43912;44.188;21.094;2023-02-21T03:37:10;34.42;;;28.55;;
57824;SDS011;43912;44.188;21.094;2023-02-21T03:39:42;36.53;;;26.40;;
57824;SDS011;43912;44.188;21.094;2023-02-21T03:42:08;30.33;;;21.88;;
57824;SDS011;43912;44.188;21.094;2023-02-21T03:44:34;31.02;;;22.05;;
57824;SDS011;43912;44.188;21.094;2023-02-21T03:47:00;31.27;;;23.23;;
57824;SDS011;43912;44.188;21.094;2023-02-21T03:49:26;28.15;;;19.33;;
57824;SDS011;43912;44.188;21.094;2023-02-21T03:51:52;25.10;;;18.63;;
57824;SDS011;43912;44.188;21.094;2023-02-21T03:54:18;27.83;;;20.02;;
57824;SDS011;43912;44.188;21.094;2023-02-21T03:56:44;28.95;;;20.73;;
57824;SDS011;43912;44.188;21.094;2023-02-21T03:59:10;31.48;;;22.23;;
57824;SDS011;43912;44.188;21.094;2023-02-21T04:01:36;29.33;;;21.13;;
57824;SDS011;43912;44.188;21.094;2023-02-21T04:04:02;34.33;;;24.40;;
57824;SDS011;43912;44.188;21.094;2023-02-21T04:06:28;30.23;;;22.15;;
57824;SDS011;43912;44.188;21.094;2023-02-21T04:08:54;30.45;;;21.00;;
57824;SDS011;43912;44.188;21.094;2023-02-21T04:11:20;26.75;;;20.20;;
57824;SDS011;43912;44.188;21.094;2023-02-21T04:13:47;26.33;;;19.52;;
57824;SDS011;43912;44.188;21.094;2023-02-21T04:16:13;29.35;;;21.20;;
57824;SDS011;43912;44.188;21.094;2023-02-21T04:18:39;29.65;;;20.17;;
57824;SDS011;43912;44.188;21.094;2023-02-21T04:21:05;28.40;;;20.33;;
57824;SDS011;43912;44.188;21.094;2023-02-21T04:23:31;28.65;;;20.05;;
57824;SDS011;43912;44.188;21.094;2023-02-21T04:25:57;32.30;;;23.90;;
57824;SDS011;43912;44.188;21.094;2023-02-21T04:28:23;30.30;;;22.75;;
57824;SDS011;43912;44.188;21.094;2023-02-21T04:30:49;29.35;;;22.48;;
57824;SDS011;43912;44.188;21.094;2023-02-21T04:33:15;36.33;;;27.42;;
57824;SDS011;43912;44.188;21.094;2023-02-21T04:35:41;35.97;;;28.92;;
57824;SDS011;43912;44.188;21.094;2023-02-21T04:38:08;35.83;;;28.35;;
57824;SDS011;43912;44.188;21.094;2023-02-21T04:40:43;34.22;;;28.20;;
57824;SDS011;43912;44.188;21.094;2023-02-21T04:43:09;36.72;;;26.42;;
57824;SDS011;43912;44.188;21.094;2023-02-21T04:45:35;34.22;;;24.42;;
57824;SDS011;43912;44.188;21.094;2023-02-21T04:48:01;34.90;;;25.27;;
57824;SDS011;43912;44.188;21.094;2023-02-21T04:50:27;28.75;;;22.15;;
57824;SDS011;43912;44.188;21.094;2023-02-21T04:52:53;32.60;;;24.85;;
57824;SDS011;43912;44.188;21.094;2023-02-21T04:55:19;33.10;;;23.83;;
57824;SDS011;43912;44.188;21.094;2023-02-21T04:57:45;31.95;;;23.70;;
57824;SDS011;43912;44.188;21.094;2023-02-21T05:00:11;31.92;;;24.10;;
57824;SDS011;43912;44.188;21.094;2023-02-21T05:02:41;37.00;;;29.40;;
57824;SDS011;43912;44.188;21.094;2023-02-21T05:05:07;31.42;;;22.40;;
57824;SDS011;43912;44.188;21.094;2023-02-21T05:07:33;31.25;;;22.35;;
57824;SDS011;43912;44.188;21.094;2023-02-21T05:09:59;30.55;;;22.58;;
57824;SDS011;43912;44.188;21.094;2023-02-21T05:12:25;32.05;;;23.95;;
57824;SDS011;43912;44.188;21.094;2023-02-21T05:14:51;33.53;;;24.00;;
57824;SDS011;43912;44.188;21.094;2023-02-21T05:17:17;33.88;;;25.55;;
57824;SDS011;43912;44.188;21.094;2023-02-21T05:19:45;41.83;;;31.58;;
57824;SDS011;43912;44.188;21.094;2023-02-21T05:22:11;28.35;;;19.77;;
57824;SDS011;43912;44.188;21.094;2023-02-21T05:24:39;28.05;;;20.60;;
57824;SDS011;43912;44.188;21.094;2023-02-21T05:27:06;40.63;;;29.00;;
57824;SDS011;43912;44.188;21.094;2023-02-21T05:29:35;38.75;;;27.88;;
57824;SDS011;43912;44.188;21.094;2023-02-21T05:32:01;43.53;;;29.48;;
57824;SDS011;43912;44.188;21.094;2023-02-21T05:34:27;43.75;;;28.90;;
57824;SDS011;43912;44.188;21.094;2023-02-21T05:36:53;42.65;;;29.17;;
57824;SDS011;43912;44.188;21.094;2023-02-21T05:39:19;39.42;;;27.63;;
57824;SDS011;43912;44.188;21.094;2023-02-21T05:41:46;44.10;;;30.95;;
57824;SDS011;43912;44.188;21.094;2023-02-21T05:44:12;34.55;;;26.42;;
57824;SDS011;43912;44.188;21.094;2023-02-21T05:46:38;44.60;;;31.48;;
57824;SDS011;43912;44.188;21.094;2023-02-21T05:49:04;41.75;;;29.40;;
57824;SDS011;43912;44.188;21.094;2023-02-21T05:51:37;36.95;;;27.30;;
57824;SDS011;43912;44.188;21.094;2023-02-21T05:54:04;31.27;;;24.15;;
57824;SDS011;43912;44.188;21.094;2023-02-21T05:56:30;38.50;;;27.23;;
57824;SDS011;43912;44.188;21.094;2023-02-21T05:59:01;50.75;;;34.38;;
57824;SDS011;43912;44.188;21.094;2023-02-21T06:01:27;50.33;;;38.10;;
57824;SDS011;43912;44.188;21.094;2023-02-21T06:03:55;48.25;;;34.88;;
57824;SDS011;43912;44.188;21.094;2023-02-21T06:06:21;43.05;;;34.40;;
57824;SDS011;43912;44.188;21.094;2023-02-21T06:11:34;42.40;;;32.17;;
57824;SDS011;43912;44.188;21.094;2023-02-21T06:14:01;43.80;;;33.30;;
57824;SDS011;43912;44.188;21.094;2023-02-21T06:16:31;39.85;;;31.77;;
57824;SDS011;43912;44.188;21.094;2023-02-21T06:18:58;44.35;;;31.30;;
57824;SDS011;43912;44.188;21.094;2023-02-21T06:21:24;78.70;;;52.95;;
57824;SDS011;43912;44.188;21.094;2023-02-21T06:23:50;91.47;;;64.88;;
57824;SDS011;43912;44.188;21.094;2023-02-21T06:26:16;44.90;;;38.70;;
57824;SDS011;43912;44.188;21.094;2023-02-21T06:28:43;35.95;;;30.00;;
57824;SDS011;43912;44.188;21.094;2023-02-21T06:31:09;37.70;;;29.25;;
57824;SDS011;43912;44.188;21.094;2023-02-21T06:33:35;31.17;;;27.10;;
57824;SDS011;43912;44.188;21.094;2023-02-21T06:36:04;36.63;;;28.83;;
57824;SDS011;43912;44.188;21.094;2023-02-21T06:38:31;29.35;;;22.58;;
57824;SDS011;43912;44.188;21.094;2023-02-21T06:40:57;28.15;;;21.17;;
57824;SDS011;43912;44.188;21.094;2023-02-21T06:43:23;31.27;;;24.23;;
57824;SDS011;43912;44.188;21.094;2023-02-21T06:45:49;25.83;;;21.00;;
57824;SDS011;43912;44.188;21.094;2023-02-21T06:48:16;29.45;;;26.27;;
57824;SDS011;43912;44.188;21.094;2023-02-21T06:50:42;26.52;;;23.27;;
57824;SDS011;43912;44.188;21.094;2023-02-21T06:53:08;28.50;;;21.95;;
57824;SDS011;43912;44.188;21.094;2023-02-21T06:55:34;26.73;;;21.20;;
57824;SDS011;43912;44.188;21.094;2023-02-21T06:58:00;29.02;;;25.00;;
57824;SDS011;43912;44.188;21.094;2023-02-21T07:00:26;31.10;;;26.55;;
57824;SDS011;43912;44.188;21.094;2023-02-21T07:02:52;26.55;;;21.95;;
57824;SDS011;43912;44.188;21.094;2023-02-21T07:05:18;26.65;;;23.73;;
57824;SDS011;43912;44.188;21.094;2023-02-21T07:07:45;30.45;;;23.13;;
57824;SDS011;43912;44.188;21.094;2023-02-21T07:10:11;29.15;;;24.05;;
57824;SDS011;43912;44.188;21.094;2023-02-21T07:12:37;33.08;;;26.95;;
57824;SDS011;43912;44.188;21.094;2023-02-21T07:15:04;25.75;;;21.95;;
57824;SDS011;43912;44.188;21.094;2023-02-21T07:17:30;33.83;;;26.33;;
57824;SDS011;43912;44.188;21.094;2023-02-21T07:19:56;31.92;;;26.48;;
57824;SDS011;43912;44.188;21.094;2023-02-21T07:22:22;25.08;;;18.90;;
57824;SDS011;43912;44.188;21.094;2023-02-21T07:24:54;32.47;;;24.48;;
57824;SDS011;43912;44.188;21.094;2023-02-21T07:27:21;21.42;;;19.05;;
57824;SDS011;43912;44.188;21.094;2023-02-21T07:29:47;24.75;;;18.83;;
57824;SDS011;43912;44.188;21.094;2023-02-21T07:32:14;22.38;;;17.63;;
57824;SDS011;43912;44.188;21.094;2023-02-21T07:34:40;24.15;;;17.85;;
57824;SDS011;43912;44.188;21.094;2023-02-21T07:37:06;21.75;;;16.83;;
57824;SDS011;43912;44.188;21.094;2023-02-21T07:39:32;24.90;;;20.98;;
57824;SDS011;43912;44.188;21.094;2023-02-21T07:41:58;20.92;;;17.20;;
57824;SDS011;43912;44.188;21.094;2023-02-21T07:44:24;18.90;;;14.90;;
57824;SDS011;43912;44.188;21.094;2023-02-21T07:46:50;21.23;;;19.00;;
57824;SDS011;43912;44.188;21.094;2023-02-21T07:49:17;21.42;;;16.98;;
57824;SDS011;43912;44.188;21.094;2023-02-21T07:51:43;28.00;;;18.80;;
57824;SDS011;43912;44.188;21.094;2023-02-21T07:54:09;18.98;;;15.07;;
57824;SDS011;43912;44.188;21.094;2023-02-21T07:56:35;23.42;;;17.83;;
57824;SDS011;43912;44.188;21.094;2023-02-21T07:59:01;20.38;;;14.20;;
57824;SDS011;43912;44.188;21.094;2023-02-21T08:01:27;19.33;;;14.88;;
57824;SDS011;43912;44.188;21.094;2023-02-21T08:03:53;21.88;;;15.75;;
57824;SDS011;43912;44.188;21.094;2023-02-21T08:06:19;17.45;;;13.45;;
57824;SDS011;43912;44.188;21.094;2023-02-21T08:08:45;19.63;;;14.50;;
57824;SDS011;43912;44.188;21.094;2023-02-21T08:11:11;15.15;;;11.02;;
57824;SDS011;43912;44.188;21.094;2023-02-21T08:13:37;16.67;;;11.48;;
57824;SDS011;43912;44.188;21.094;2023-02-21T08:16:03;15.30;;;12.40;;
57824;SDS011;43912;44.188;21.094;2023-02-21T08:18:29;15.10;;;11.75;;
57824;SDS011;43912;44.188;21.094;2023-02-21T08:20:55;17.52;;;13.35;;
57824;SDS011;43912;44.188;21.094;2023-02-21T08:23:22;16.70;;;12.38;;
57824;SDS011;43912;44.188;21.094;2023-02-21T08:25:48;29.92;;;26.67;;
57824;SDS011;43912;44.188;21.094;2023-02-21T08:28:15;68.72;;;61.55;;
57824;SDS011;43912;44.188;21.094;2023-02-21T08:30:41;19.98;;;16.20;;
57824;SDS011;43912;44.188;21.094;2023-02-21T08:33:07;49.75;;;44.88;;
57824;SDS011;43912;44.188;21.094;2023-02-21T08:35:33;17.80;;;14.75;;
57824;SDS011;43912;44.188;21.094;2023-02-21T08:37:59;26.42;;;23.77;;
57824;SDS011;43912;44.188;21.094;2023-02-21T08:40:29;15.35;;;12.35;;
57824;SDS011;43912;44.188;21.094;2023-02-21T08:42:56;17.00;;;14.23;;
57824;SDS011;43912;44.188;21.094;2023-02-21T08:45:23;16.77;;;15.02;;
57824;SDS011;43912;44.188;21.094;2023-02-21T08:47:49;15.32;;;12.18;;
57824;SDS011;43912;44.188;21.094;2023-02-21T08:50:16;17.02;;;12.68;;
57824;SDS011;43912;44.188;21.094;2023-02-21T08:52:44;14.50;;;10.60;;
57824;SDS011;43912;44.188;21.094;2023-02-21T08:55:10;13.63;;;10.45;;
57824;SDS011;43912;44.188;21.094;2023-02-21T08:57:36;14.27;;;11.38;;
57824;SDS011;43912;44.188;21.094;2023-02-21T09:00:02;14.45;;;11.30;;
57824;SDS011;43912;44.188;21.094;2023-02-21T09:02:30;16.52;;;11.95;;
57824;SDS011;43912;44.188;21.094;2023-02-21T09:04:58;17.48;;;12.40;;
57824;SDS011;43912;44.188;21.094;2023-02-21T09:07:24;14.02;;;11.77;;
57824;SDS011;43912;44.188;21.094;2023-02-21T09:09:50;12.85;;;9.75;;
57824;SDS011;43912;44.188;21.094;2023-02-21T09:12:16;13.63;;;10.88;;
57824;SDS011;43912;44.188;21.094;2023-02-21T09:14:42;16.58;;;11.60;;
57824;SDS011;43912;44.188;21.094;2023-02-21T09:17:09;12.77;;;10.07;;
57824;SDS011;43912;44.188;21.094;2023-02-21T09:19:36;11.75;;;10.32;;
57824;SDS011;43912;44.188;21.094;2023-02-21T09:22:02;12.90;;;10.55;;
57824;SDS011;43912;44.188;21.094;2023-02-21T09:24:28;12.63;;;11.25;;
57824;SDS011;43912;44.188;21.094;2023-02-21T09:26:55;14.48;;;12.73;;
57824;SDS011;43912;44.188;21.094;2023-02-21T09:29:27;42.90;;;33.05;;
57824;SDS011;43912;44.188;21.094;2023-02-21T09:31:53;34.00;;;28.83;;
57824;SDS011;43912;44.188;21.094;2023-02-21T09:34:19;12.38;;;9.30;;
57824;SDS011;43912;44.188;21.094;2023-02-21T09:36:46;14.45;;;12.57;;
57824;SDS011;43912;44.188;21.094;2023-02-21T09:39:12;24.52;;;10.00;;
57824;SDS011;43912;44.188;21.094;2023-02-21T09:41:39;14.48;;;9.50;;
57824;SDS011;43912;44.188;21.094;2023-02-21T09:44:10;14.07;;;9.80;;
57824;SDS011;43912;44.188;21.094;2023-02-21T09:46:39;16.65;;;10.57;;
57824;SDS011;43912;44.188;21.094;2023-02-21T09:49:16;12.18;;;9.20;;
57824;SDS011;43912;44.188;21.094;2023-02-21T09:51:47;11.32;;;8.70;;
57824;SDS011;43912;44.188;21.094;2023-02-21T09:54:18;12.10;;;9.27;;
57824;SDS011;43912;44.188;21.094;2023-02-21T09:56:47;13.30;;;10.35;;
57824;SDS011;43912;44.188;21.094;2023-02-21T09:59:13;14.98;;;11.48;;
57824;SDS011;43912;44.188;21.094;2023-02-21T10:17:22;17.35;;;15.55;;
57824;SDS011;43912;44.188;21.094;2023-02-21T10:19:52;14.98;;;11.23;;
57824;SDS011;43912;44.188;21.094;2023-02-21T10:22:21;16.77;;;14.23;;
57824;SDS011;43912;44.188;21.094;2023-02-21T10:24:48;16.40;;;14.38;;
57824;SDS011;43912;44.188;21.094;2023-02-21T10:27:18;18.80;;;17.00;;
57824;SDS011;43912;44.188;21.094;2023-02-21T10:29:50;14.95;;;13.30;;
57824;SDS011;43912;44.188;21.094;2023-02-21T10:32:19;11.77;;;9.13;;
57824;SDS011;43912;44.188;21.094;2023-02-21T10:34:45;12.20;;;9.35;;
57824;SDS011;43912;44.188;21.094;2023-02-21T10:48:11;11.52;;;8.80;;
57824;SDS011;43912;44.188;21.094;2023-02-21T10:50:50;16.05;;;8.98;;
57824;SDS011;43912;44.188;21.094;2023-02-21T10:53:28;25.73;;;12.52;;
57824;SDS011;43912;44.188;21.094;2023-02-21T10:58:43;9.50;;;7.00;;
57824;SDS011;43912;44.188;21.094;2023-02-21T11:01:14;17.67;;;9.63;;
57824;SDS011;43912;44.188;21.094;2023-02-21T11:03:44;13.02;;;7.45;;
57824;SDS011;43912;44.188;21.094;2023-02-21T11:06:20;11.00;;;7.22;;
57824;SDS011;43912;44.188;21.094;2023-02-21T11:08:47;13.00;;;7.30;;
57824;SDS011;43912;44.188;21.094;2023-02-21T11:11:13;21.88;;;8.82;;
57824;SDS011;43912;44.188;21.094;2023-02-21T11:13:39;10.30;;;6.13;;
57824;SDS011;43912;44.188;21.094;2023-02-21T11:18:34;8.73;;;5.00;;
57824;SDS011;43912;44.188;21.094;2023-02-21T11:21:13;10.02;;;5.82;;
57824;SDS011;43912;44.188;21.094;2023-02-21T11:23:44;10.18;;;5.90;;
57824;SDS011;43912;44.188;21.094;2023-02-21T11:26:10;13.23;;;8.60;;
57824;SDS011;43912;44.188;21.094;2023-02-21T11:28:41;7.95;;;3.92;;
57824;SDS011;43912;44.188;21.094;2023-02-21T11:33:48;9.73;;;6.97;;
57824;SDS011;43912;44.188;21.094;2023-02-21T11:36:18;8.88;;;5.53;;
57824;SDS011;43912;44.188;21.094;2023-02-21T11:44:02;10.57;;;4.40;;
57824;SDS011;43912;44.188;21.094;2023-02-21T11:46:46;6.78;;;3.70;;
57824;SDS011;43912;44.188;21.094;2023-02-21T11:54:59;10.75;;;6.82;;
57824;SDS011;43912;44.188;21.094;2023-02-21T12:05:29;16.88;;;7.40;;
57824;SDS011;43912;44.188;21.094;2023-02-21T12:10:57;10.88;;;5.80;;
57824;SDS011;43912;44.188;21.094;2023-02-21T12:37:16;7.22;;;3.20;;
57824;SDS011;43912;44.188;21.094;2023-02-21T12:39:55;19.58;;;6.78;;
57824;SDS011;43912;44.188;21.094;2023-02-21T12:42:44;13.55;;;9.52;;
57824;SDS011;43912;44.188;21.094;2023-02-21T12:50:30;11.15;;;6.57;;
57824;SDS011;43912;44.188;21.094;2023-02-21T12:53:02;11.13;;;6.95;;
57824;SDS011;43912;44.188;21.094;2023-02-21T12:55:41;16.40;;;13.68;;
57824;SDS011;43912;44.188;21.094;2023-02-21T13:00:54;11.93;;;9.30;;
57824;SDS011;43912;44.188;21.094;2023-02-21T13:05:59;10.80;;;8.20;;
57824;SDS011;43912;44.188;21.094;2023-02-21T13:08:49;10.23;;;6.43;;
57824;SDS011;43912;44.188;21.094;2023-02-21T13:12:00;12.52;;;7.32;;
57824;SDS011;43912;44.188;21.094;2023-02-21T13:14:08;11.55;;;6.90;;
57824;SDS011;43912;44.188;21.094;2023-02-21T13:16:35;10.70;;;6.40;;
57824;SDS011;43912;44.188;21.094;2023-02-21T13:19:02;8.05;;;5.10;;
57824;SDS011;43912;44.188;21.094;2023-02-21T13:24:14;13.30;;;8.50;;
57824;SDS011;43912;44.188;21.094;2023-02-21T13:27:05;15.60;;;13.60;;
57824;SDS011;43912;44.188;21.094;2023-02-21T13:29:36;13.13;;;8.98;;
57824;SDS011;43912;44.188;21.094;2023-02-21T13:32:16;12.18;;;7.82;;
57824;SDS011;43912;44.188;21.094;2023-02-21T13:34:46;9.50;;;6.22;;
57824;SDS011;43912;44.188;21.094;2023-02-21T13:37:16;11.63;;;8.32;;
57824;SDS011;43912;44.188;21.094;2023-02-21T13:39:43;14.93;;;11.35;;
57824;SDS011;43912;44.188;21.094;2023-02-21T13:42:14;14.82;;;12.07;;
57824;SDS011;43912;44.188;21.094;2023-02-21T13:44:41;12.48;;;9.70;;
57824;SDS011;43912;44.188;21.094;2023-02-21T13:47:10;13.85;;;10.77;;
57824;SDS011;43912;44.188;21.094;2023-02-21T13:55:07;13.27;;;11.15;;
57824;SDS011;43912;44.188;21.094;2023-02-21T13:57:31;13.55;;;9.93;;
57824;SDS011;43912;44.188;21.094;2023-02-21T13:59:57;16.60;;;9.77;;
57824;SDS011;43912;44.188;21.094;2023-02-21T14:02:27;12.43;;;9.85;;
57824;SDS011;43912;44.188;21.094;2023-02-21T14:05:00;11.82;;;7.60;;
57824;SDS011;43912;44.188;21.094;2023-02-21T14:07:43;11.75;;;7.72;;
57824;SDS011;43912;44.188;21.094;2023-02-21T14:10:15;14.38;;;8.73;;
57824;SDS011;43912;44.188;21.094;2023-02-21T14:12:43;11.35;;;7.22;;
57824;SDS011;43912;44.188;21.094;2023-02-21T14:15:09;13.15;;;7.10;;
57824;SDS011;43912;44.188;21.094;2023-02-21T14:17:35;8.93;;;5.68;;
57824;SDS011;43912;44.188;21.094;2023-02-21T14:20:01;9.85;;;6.15;;
57824;SDS011;43912;44.188;21.094;2023-02-21T14:22:30;10.23;;;5.10;;
57824;SDS011;43912;44.188;21.094;2023-02-21T14:25:06;10.82;;;4.78;;
57824;SDS011;43912;44.188;21.094;2023-02-21T14:27:34;8.25;;;4.53;;
57824;SDS011;43912;44.188;21.094;2023-02-21T14:32:47;11.25;;;5.28;;
57824;SDS011;43912;44.188;21.094;2023-02-21T14:38:04;11.60;;;5.43;;
57824;SDS011;43912;44.188;21.094;2023-02-21T14:46:05;34.47;;;24.42;;
57824;SDS011;43912;44.188;21.094;2023-02-21T14:51:07;46.63;;;23.27;;
57824;SDS011;43912;44.188;21.094;2023-02-21T14:56:09;18.13;;;12.07;;
57824;SDS011;43912;44.188;21.094;2023-02-21T14:59:00;35.42;;;28.52;;
57824;SDS011;43912;44.188;21.094;2023-02-21T15:06:39;12.45;;;6.55;;
57824;SDS011;43912;44.188;21.094;2023-02-21T15:09:10;11.20;;;6.57;;
57824;SDS011;43912;44.188;21.094;2023-02-21T15:11:37;14.82;;;10.25;;
57824;SDS011;43912;44.188;21.094;2023-02-21T15:14:15;22.88;;;18.42;;
57824;SDS011;43912;44.188;21.094;2023-02-21T15:16:47;31.25;;;24.45;;
57824;SDS011;43912;44.188;21.094;2023-02-21T15:24:37;34.55;;;19.02;;
57824;SDS011;43912;44.188;21.094;2023-02-21T15:27:10;16.83;;;10.73;;
57824;SDS011;43912;44.188;21.094;2023-02-21T15:29:36;13.00;;;6.85;;
57824;SDS011;43912;44.188;21.094;2023-02-21T15:32:02;16.15;;;8.18;;
57824;SDS011;43912;44.188;21.094;2023-02-21T15:34:29;18.92;;;12.10;;
57824;SDS011;43912;44.188;21.094;2023-02-21T15:39:32;21.38;;;9.10;;
57824;SDS011;43912;44.188;21.094;2023-02-21T15:41:59;14.45;;;8.93;;
57824;SDS011;43912;44.188;21.094;2023-02-21T15:44:31;24.67;;;14.45;;
57824;SDS011;43912;44.188;21.094;2023-02-21T15:47:00;19.30;;;11.82;;
57824;SDS011;43912;44.188;21.094;2023-02-21T15:49:28;19.10;;;10.07;;
57824;SDS011;43912;44.188;21.094;2023-02-21T15:51:55;18.27;;;11.95;;
57824;SDS011;43912;44.188;21.094;2023-02-21T15:54:28;19.08;;;14.70;;
57824;SDS011;43912;44.188;21.094;2023-02-21T15:57:37;44.13;;;28.10;;
57824;SDS011;43912;44.188;21.094;2023-02-21T15:59:44;49.10;;;26.42;;
57824;SDS011;43912;44.188;21.094;2023-02-21T16:02:11;44.58;;;26.88;;
57824;SDS011;43912;44.188;21.094;2023-02-21T16:04:39;19.55;;;13.48;;
57824;SDS011;43912;44.188;21.094;2023-02-21T16:07:06;25.50;;;17.15;;
57824;SDS011;43912;44.188;21.094;2023-02-21T16:09:33;28.48;;;20.65;;
57824;SDS011;43912;44.188;21.094;2023-02-21T16:14:55;20.33;;;13.35;;
57824;SDS011;43912;44.188;21.094;2023-02-21T16:19:50;22.90;;;12.93;;
57824;SDS011;43912;44.188;21.094;2023-02-21T16:22:34;28.42;;;17.23;;
57824;SDS011;43912;44.188;21.094;2023-02-21T16:25:10;25.50;;;18.35;;
57824;SDS011;43912;44.188;21.094;2023-02-21T16:27:38;31.75;;;23.98;;
57824;SDS011;43912;44.188;21.094;2023-02-21T16:30:04;43.13;;;29.13;;
57824;SDS011;43912;44.188;21.094;2023-02-21T16:32:31;56.22;;;42.90;;
57824;SDS011;43912;44.188;21.094;2023-02-21T16:34:59;69.82;;;50.00;;
57824;SDS011;43912;44.188;21.094;2023-02-21T16:37:25;78.30;;;54.40;;
57824;SDS011;43912;44.188;21.094;2023-02-21T16:39:52;101.78;;;61.55;;
57824;SDS011;43912;44.188;21.094;2023-02-21T16:42:18;96.95;;;63.92;;
57824;SDS011;43912;44.188;21.094;2023-02-21T16:44:44;93.60;;;60.38;;
57824;SDS011;43912;44.188;21.094;2023-02-21T16:47:13;80.25;;;53.20;;
57824;SDS011;43912;44.188;21.094;2023-02-21T16:49:39;71.32;;;50.53;;
57824;SDS011;43912;44.188;21.094;2023-02-21T16:52:08;66.35;;;44.63;;
57824;SDS011;43912;44.188;21.094;2023-02-21T16:54:34;73.30;;;49.70;;
57824;SDS011;43912;44.188;21.094;2023-02-21T16:57:00;77.88;;;55.00;;
57824;SDS011;43912;44.188;21.094;2023-02-21T16:59:26;128.25;;;83.53;;
57824;SDS011;43912;44.188;21.094;2023-02-21T17:01:52;96.22;;;62.40;;
57824;SDS011;43912;44.188;21.094;2023-02-21T17:04:19;75.65;;;53.72;;
57824;SDS011;43912;44.188;21.094;2023-02-21T17:06:49;51.80;;;39.65;;
57824;SDS011;43912;44.188;21.094;2023-02-21T17:09:17;51.20;;;36.22;;
57824;SDS011;43912;44.188;21.094;2023-02-21T17:11:43;42.85;;;29.98;;
57824;SDS011;43912;44.188;21.094;2023-02-21T17:14:09;45.28;;;31.48;;
57824;SDS011;43912;44.188;21.094;2023-02-21T17:16:35;60.67;;;35.13;;
57824;SDS011;43912;44.188;21.094;2023-02-21T17:19:02;61.65;;;43.28;;
57824;SDS011;43912;44.188;21.094;2023-02-21T17:21:29;62.53;;;44.58;;